createdAt,value
2023-08-05T00:02:18.109Z,94874.31
2023-08-05T00:04:46.484Z,94873.56
2023-08-05T00:07:16.141Z,94874.41
2023-08-05T00:09:44.711Z,94881.59
2023-08-05T00:12:13.111Z,94876.53
2023-08-05T00:14:41.542Z,94874.28
2023-08-05T00:17:09.932Z,94871.28
2023-08-05T00:19:38.334Z,94872.94
2023-08-05T00:22:06.856Z,94864.09
2023-08-05T00:24:36.541Z,94866.94
2023-08-05T00:27:05.084Z,94869.38
2023-08-05T00:29:33.606Z,94872.22
2023-08-05T00:32:01.966Z,94862.91
2023-08-05T00:34:30.303Z,94866.66
2023-08-05T00:36:58.624Z,94864.13
2023-08-05T00:39:26.947Z,94870.78
2023-08-05T00:41:56.644Z,94868.75
2023-08-05T00:44:25.908Z,94861.28
2023-08-05T00:46:54.615Z,94843.81
2023-08-05T00:49:23.250Z,94862.13
2023-08-05T00:51:52.131Z,94851.75
2023-08-05T00:54:20.561Z,94850.94
2023-08-05T00:56:49.314Z,94853.22
2023-08-05T00:59:20.842Z,94841.69
2023-08-05T01:01:49.142Z,94843.25
2023-08-05T01:04:17.533Z,94834.22
2023-08-05T01:06:47.048Z,94834.13
2023-08-05T01:09:15.586Z,94838.56
2023-08-05T01:11:44.111Z,94834.44
2023-08-05T01:14:12.489Z,94827.38
2023-08-05T01:16:42.150Z,94828.13
2023-08-05T01:19:18.540Z,94838.19
2023-08-05T01:21:53.778Z,94835.84
2023-08-05T01:24:27.460Z,94831.50
2023-08-05T01:26:57.886Z,94837.69
2023-08-05T01:29:26.287Z,94829.59
2023-08-05T01:31:55.729Z,94835.75
2023-08-05T01:34:24.505Z,94835.41
2023-08-05T01:36:52.966Z,94836.19
2023-08-05T01:39:21.332Z,94835.34
2023-08-05T01:41:49.682Z,94834.53
2023-08-05T01:44:19.412Z,94830.22
2023-08-05T01:46:47.953Z,94836.44
2023-08-05T01:49:16.541Z,94837.19
2023-08-05T01:51:44.786Z,94831.03
2023-08-05T01:54:13.080Z,94833.22
2023-08-05T01:56:41.402Z,94848.63
2023-08-05T01:59:09.690Z,94833.78
2023-08-05T02:01:47.479Z,94838.25
2023-08-05T02:04:16.630Z,94829.31
2023-08-05T02:06:45.044Z,94822.22
2023-08-05T02:09:13.418Z,94829.88
2023-08-05T02:11:41.754Z,94826.00
2023-08-05T02:14:10.066Z,94820.78
2023-08-05T02:16:38.618Z,94826.91
2023-08-05T02:19:10.623Z,94828.47
2023-08-05T02:21:41.246Z,94823.38
2023-08-05T02:24:11.333Z,94824.63
2023-08-05T02:26:40.064Z,94824.56
2023-08-05T02:29:08.391Z,94820.97
2023-08-05T02:31:36.748Z,94822.81
2023-08-05T02:34:05.029Z,94821.19
2023-08-05T02:36:34.922Z,94824.53
2023-08-05T02:39:03.292Z,94832.22
2023-08-05T02:41:31.637Z,94824.84
2023-08-05T02:43:59.948Z,94828.50
2023-08-05T02:46:28.264Z,94823.69
2023-08-05T02:48:56.601Z,94825.44
2023-08-05T02:51:24.869Z,94830.19
2023-08-05T02:53:54.533Z,94831.75
2023-08-05T02:56:22.834Z,94831.88
2023-08-05T02:58:51.146Z,94827.44
2023-08-05T03:01:19.486Z,94822.53
2023-08-05T03:03:47.881Z,94823.72
2023-08-05T03:06:16.180Z,94818.78
2023-08-05T03:08:44.399Z,94821.31
2023-08-05T03:11:14.111Z,94818.75
2023-08-05T03:13:42.414Z,94821.84
2023-08-05T03:16:12.142Z,94812.31
2023-08-05T03:18:40.695Z,94816.03
2023-08-05T03:21:09.113Z,94820.44
2023-08-05T03:23:37.416Z,94825.88
2023-08-05T03:26:05.777Z,94819.66
2023-08-05T03:28:35.484Z,94826.56
2023-08-05T03:31:03.789Z,94821.81
2023-08-05T03:33:32.133Z,94817.06
2023-08-05T03:36:00.404Z,94820.69
2023-08-05T03:38:28.671Z,94823.31
2023-08-05T03:40:57.015Z,94827.38
2023-08-05T03:43:25.321Z,94829.81
2023-08-05T03:45:55.057Z,94829.53
2023-08-05T03:48:23.402Z,94828.69
2023-08-05T03:50:51.855Z,94823.41
2023-08-05T03:53:20.237Z,94825.97
2023-08-05T03:55:48.588Z,94823.31
2023-08-05T03:58:19.752Z,94823.91
2023-08-05T04:00:48.208Z,94826.44
2023-08-05T04:03:18.119Z,94828.38
2023-08-05T04:05:48.200Z,94829.84
2023-08-05T04:08:17.449Z,94831.56
2023-08-05T04:10:45.695Z,94832.75
2023-08-05T04:13:13.960Z,94829.25
2023-08-05T04:15:42.269Z,94829.66
2023-08-05T04:18:10.636Z,94822.75
2023-08-05T04:20:41.951Z,94826.97
2023-08-05T04:23:10.474Z,94829.78
2023-08-05T04:25:39.061Z,94823.56
2023-08-05T04:28:07.836Z,94829.00
2023-08-05T04:30:36.186Z,94823.94
2023-08-05T04:33:04.594Z,94820.91
2023-08-05T04:35:32.822Z,94823.72
2023-08-05T04:38:02.515Z,94825.25
2023-08-05T04:40:30.926Z,94828.84
2023-08-05T04:42:59.272Z,94822.13
2023-08-05T04:45:27.674Z,94818.66
2023-08-05T04:47:55.985Z,94800.88
2023-08-05T04:50:24.372Z,94806.09
2023-08-05T04:52:52.661Z,94795.75
2023-08-05T04:55:22.319Z,94804.72
2023-08-05T04:57:54.672Z,94800.50
2023-08-05T05:00:23.350Z,94803.41
2023-08-05T05:02:51.715Z,94811.28
2023-08-05T05:05:20.248Z,94801.22
2023-08-05T05:07:48.663Z,94807.97
2023-08-05T05:10:17.112Z,94798.78
2023-08-05T05:12:46.830Z,94800.16
2023-08-05T05:15:15.192Z,94803.31
2023-08-05T05:17:43.512Z,94799.06
2023-08-05T05:20:13.105Z,94793.78
2023-08-05T05:22:41.458Z,94787.47
2023-08-05T05:25:10.481Z,94787.50
2023-08-05T05:27:38.753Z,94766.84
2023-08-05T05:30:09.788Z,94776.66
2023-08-05T05:32:38.077Z,94771.25
2023-08-05T05:35:07.082Z,94780.06
2023-08-05T05:37:35.347Z,94768.03
2023-08-05T05:40:04.560Z,94771.53
2023-08-05T05:42:32.866Z,94775.63
2023-08-05T05:45:01.723Z,94779.88
2023-08-05T05:47:31.369Z,94782.38
2023-08-05T05:50:00.295Z,94773.47
2023-08-05T05:52:28.629Z,94767.91
2023-08-05T05:54:56.931Z,94750.47
2023-08-05T05:57:25.328Z,94752.63
2023-08-05T05:59:53.682Z,94746.69
2023-08-05T06:02:22.006Z,94745.63
2023-08-05T06:04:51.931Z,94749.88
2023-08-05T06:07:20.367Z,94737.28
2023-08-05T06:09:48.710Z,94745.19
2023-08-05T06:12:19.425Z,94739.09
2023-08-05T06:14:47.797Z,94722.41
2023-08-05T06:17:16.079Z,94724.28
2023-08-05T06:19:44.574Z,94727.66
2023-08-05T06:22:14.689Z,94722.03
2023-08-05T06:24:43.097Z,94719.41
2023-08-05T06:27:11.381Z,94716.28
2023-08-05T06:29:39.718Z,94701.44
2023-08-05T06:32:08.386Z,94703.47
2023-08-05T06:34:36.691Z,94706.59
2023-08-05T06:37:05.011Z,94705.41
2023-08-05T06:39:35.197Z,94703.44
2023-08-05T06:42:03.541Z,94706.22
2023-08-05T06:44:31.903Z,94695.59
2023-08-05T06:47:00.246Z,94701.56
2023-08-05T06:49:28.533Z,94695.75
2023-08-05T06:51:58.588Z,94693.03
2023-08-05T06:54:27.189Z,94689.72
2023-08-05T06:56:56.950Z,94687.00
2023-08-05T06:59:25.242Z,94681.13
2023-08-05T07:01:53.924Z,94681.97
2023-08-05T07:04:22.590Z,94683.34
2023-08-05T07:06:50.889Z,94681.59
2023-08-05T07:09:19.186Z,94672.44
2023-08-05T07:11:47.855Z,94665.13
2023-08-05T07:14:17.595Z,94665.91
2023-08-05T07:16:45.976Z,94673.97
2023-08-05T07:19:14.285Z,94676.81
2023-08-05T07:21:42.584Z,94666.66
2023-08-05T07:24:11.043Z,94672.56
2023-08-05T07:26:39.324Z,94655.94
2023-08-05T07:29:07.614Z,94655.06
2023-08-05T07:31:37.528Z,94656.00
2023-08-05T07:34:06.727Z,94655.44
2023-08-05T07:36:35.088Z,94659.34
2023-08-05T07:39:07.482Z,94656.31
2023-08-05T07:41:37.360Z,94653.22
2023-08-05T07:44:05.858Z,94625.56
2023-08-05T07:46:37.307Z,94628.31
2023-08-05T07:49:08.416Z,94632.72
2023-08-05T07:51:36.806Z,94636.97
2023-08-05T07:54:05.275Z,94637.69
2023-08-05T07:56:36.727Z,94624.75
2023-08-05T07:59:05.184Z,94613.97
2023-08-05T08:01:35.506Z,94616.22
2023-08-05T08:04:04.819Z,94622.78
2023-08-05T08:06:34.526Z,94627.91
2023-08-05T08:09:02.814Z,94620.41
2023-08-05T08:11:31.040Z,94614.19
2023-08-05T08:13:59.344Z,94605.91
2023-08-05T08:16:27.691Z,94590.22
2023-08-05T08:18:55.990Z,94579.41
2023-08-05T08:21:24.401Z,94519.22
2023-08-05T08:23:54.055Z,94576.94
2023-08-05T08:26:22.327Z,94579.28
2023-08-05T08:28:50.651Z,94585.44
2023-08-05T08:31:19.002Z,94580.16
2023-08-05T08:33:47.666Z,94568.38
2023-08-05T08:36:15.963Z,94564.97
2023-08-05T08:38:44.300Z,94571.19
2023-08-05T08:41:14.072Z,94566.28
2023-08-05T08:43:44.561Z,94567.09
2023-08-05T08:46:14.972Z,94556.16
2023-08-05T08:48:45.947Z,94554.47
2023-08-05T08:51:14.820Z,94551.53
2023-08-05T08:53:45.988Z,94550.84
2023-08-05T08:56:15.867Z,94543.53
2023-08-05T08:58:45.698Z,94535.25
2023-08-05T09:01:17.623Z,94530.78
2023-08-05T09:03:50.798Z,94535.94
2023-08-05T09:06:19.964Z,94529.72
2023-08-05T09:08:48.614Z,94536.88
2023-08-05T09:11:18.983Z,94527.28
2023-08-05T09:13:47.380Z,94528.16
2023-08-05T09:16:16.119Z,94520.03
2023-08-05T09:18:54.609Z,94520.00
2023-08-05T09:21:24.571Z,94448.50
2023-08-05T09:23:55.584Z,94483.19
2023-08-05T09:26:33.122Z,94514.53
2023-08-05T09:29:02.217Z,94506.84
2023-08-05T09:31:30.514Z,94514.31
2023-08-05T09:33:58.875Z,94505.59
2023-08-05T09:36:28.439Z,94503.81
2023-08-05T09:39:07.399Z,94496.06
2023-08-05T09:41:37.493Z,94488.84
2023-08-05T09:44:08.436Z,94490.06
2023-08-05T09:46:42.407Z,94489.19
2023-08-05T09:49:13.690Z,94387.22
2023-08-05T09:51:44.245Z,94485.72
2023-08-05T09:54:17.114Z,94483.75
2023-08-05T09:56:47.560Z,94482.19
2023-08-05T09:59:17.990Z,94475.22
2023-08-05T10:01:48.250Z,94454.09
2023-08-05T10:04:18.864Z,94479.06
2023-08-05T10:06:49.498Z,94481.72
2023-08-05T10:09:17.749Z,94473.97
2023-08-05T10:11:48.288Z,94477.47
2023-08-05T10:14:17.536Z,94465.56
2023-08-05T10:16:47.144Z,94464.25
2023-08-05T10:19:15.503Z,94461.59
2023-08-05T10:21:43.980Z,94469.47
2023-08-05T10:24:12.313Z,94448.63
2023-08-05T10:26:45.381Z,94454.66
2023-08-05T10:29:30.966Z,94454.34
2023-08-05T10:32:12.401Z,94447.97
2023-08-05T10:34:40.916Z,94460.25
2023-08-05T10:37:09.643Z,94454.28
2023-08-05T10:39:45.330Z,94461.31
2023-08-05T10:42:38.080Z,94470.03
2023-08-05T10:45:10.562Z,94456.31
2023-08-05T10:47:49.087Z,94447.38
2023-08-05T10:50:17.633Z,94444.53
2023-08-05T10:52:46.790Z,94454.97
2023-08-05T10:55:15.068Z,94441.34
2023-08-05T10:57:49.942Z,94435.53
2023-08-05T11:00:25.957Z,94425.72
2023-08-05T11:03:33.000Z,94423.50
2023-08-05T11:06:06.155Z,94409.25
2023-08-05T11:08:35.406Z,94416.22
2023-08-05T11:11:04.803Z,94409.75
2023-08-05T11:13:38.058Z,94410.03
2023-08-05T11:16:09.673Z,94408.19
2023-08-05T11:18:38.770Z,94405.25
2023-08-05T11:21:08.769Z,94397.50
2023-08-05T11:23:41.069Z,94398.03
2023-08-05T11:26:10.372Z,94384.09
2023-08-05T11:28:44.056Z,94382.94
2023-08-05T11:31:23.422Z,94292.72
2023-08-05T11:33:51.920Z,94385.13
2023-08-05T11:36:25.394Z,94384.78
2023-08-05T11:38:56.201Z,94388.13
2023-08-05T11:41:25.128Z,94387.03
2023-08-05T11:43:53.561Z,94383.56
2023-08-05T11:46:40.838Z,94381.78
2023-08-05T11:49:14.058Z,94376.50
2023-08-05T11:51:49.782Z,94380.41
2023-08-05T11:54:29.679Z,94370.03
2023-08-05T11:57:00.089Z,94362.00
2023-08-05T11:59:46.602Z,94366.97
2023-08-05T12:02:19.705Z,94355.88
2023-08-05T12:04:49.622Z,94316.94
2023-08-05T12:07:19.694Z,94336.06
2023-08-05T12:10:05.258Z,94342.44
2023-08-05T12:12:33.858Z,94338.94
2023-08-05T12:15:13.140Z,94259.03
2023-08-05T12:17:48.532Z,94294.97
2023-08-05T12:20:19.755Z,94331.34
2023-08-05T12:22:49.500Z,94272.81
2023-08-05T12:25:19.153Z,94295.84
2023-08-05T12:27:48.124Z,94313.72
2023-08-05T12:30:17.710Z,94304.59
2023-08-05T12:32:47.851Z,94307.94
2023-08-05T12:35:16.354Z,94309.34
2023-08-05T12:37:45.001Z,94297.63
2023-08-05T12:40:14.179Z,94303.84
2023-08-05T12:42:43.180Z,94291.41
2023-08-05T12:45:12.005Z,94295.34
2023-08-05T12:47:41.274Z,94289.91
2023-08-05T12:50:11.993Z,94286.94
2023-08-05T12:52:40.352Z,94278.41
2023-08-05T12:55:10.030Z,94277.41
2023-08-05T12:57:38.537Z,94260.84
2023-08-05T13:00:07.973Z,94277.03
2023-08-05T13:02:36.438Z,94262.59
2023-08-05T13:05:05.222Z,94266.75
2023-08-05T13:07:34.969Z,94264.47
2023-08-05T13:10:03.364Z,94273.81
2023-08-05T13:12:31.721Z,94258.13
2023-08-05T13:15:00.013Z,94241.66
2023-08-05T13:17:28.366Z,94244.00
2023-08-05T13:19:56.709Z,94255.41
2023-08-05T13:22:25.012Z,94251.66
2023-08-05T13:24:55.778Z,94245.16
2023-08-05T13:27:24.300Z,94247.78
2023-08-05T13:29:52.630Z,94235.72
2023-08-05T13:32:20.951Z,94216.81
2023-08-05T13:34:49.303Z,94219.44
2023-08-05T13:37:17.604Z,94209.00
2023-08-05T13:39:51.062Z,94205.13
2023-08-05T13:42:20.887Z,94203.72
2023-08-05T13:44:49.232Z,94206.81
2023-08-05T13:47:17.557Z,94178.59
2023-08-05T13:49:45.809Z,94190.13
2023-08-05T13:52:14.093Z,94193.16
2023-08-05T13:54:42.408Z,94181.03
2023-08-05T13:57:10.712Z,94169.59
2023-08-05T13:59:40.369Z,94164.63
2023-08-05T14:02:08.945Z,94167.19
2023-08-05T14:04:37.229Z,94169.66
2023-08-05T14:07:06.026Z,94164.25
2023-08-05T14:09:34.805Z,94170.63
2023-08-05T14:12:03.102Z,94174.31
2023-08-05T14:14:31.438Z,94182.78
2023-08-05T14:17:01.172Z,94177.41
2023-08-05T14:19:29.452Z,94164.53
2023-08-05T14:21:57.745Z,94165.75
2023-08-05T14:24:25.966Z,94159.59
2023-08-05T14:26:54.250Z,94159.97
2023-08-05T14:29:22.611Z,94166.50
2023-08-05T14:31:51.144Z,94158.66
2023-08-05T14:34:21.135Z,94173.38
2023-08-05T14:36:49.456Z,94169.09
2023-08-05T14:39:17.906Z,94162.66
2023-08-05T14:41:46.285Z,94163.44
2023-08-05T14:44:14.794Z,94165.94
2023-08-05T14:46:42.992Z,94156.81
2023-08-05T14:49:11.384Z,94153.13
2023-08-05T14:51:41.603Z,94169.44
2023-08-05T14:54:10.357Z,94154.19
2023-08-05T14:56:40.053Z,94151.75
2023-08-05T14:59:10.206Z,94152.31
2023-08-05T15:01:38.617Z,94144.41
2023-08-05T15:04:07.056Z,94116.91
2023-08-05T15:06:35.311Z,94102.19
2023-08-05T15:09:05.445Z,94159.66
2023-08-05T15:11:33.946Z,94125.34
2023-08-05T15:14:02.249Z,94165.78
2023-08-05T15:16:30.716Z,94166.56
2023-08-05T15:18:59.047Z,94168.97
2023-08-05T15:21:27.409Z,94159.78
2023-08-05T15:23:58.167Z,94153.97
2023-08-05T15:26:28.589Z,94125.44
2023-08-05T15:28:56.911Z,94144.72
2023-08-05T15:31:25.397Z,94165.06
2023-08-05T15:33:53.708Z,94164.56
2023-08-05T15:36:22.032Z,94115.59
2023-08-05T15:38:50.628Z,94169.59
2023-08-05T15:41:20.608Z,94151.34
2023-08-05T15:43:50.441Z,94167.81
2023-08-05T15:46:18.818Z,94178.44
2023-08-05T15:48:47.186Z,94143.97
2023-08-05T15:51:15.576Z,94165.22
2023-08-05T15:53:43.808Z,94161.38
2023-08-05T15:56:12.081Z,94153.38
2023-08-05T15:58:40.479Z,94161.69
2023-08-05T16:01:10.212Z,94168.28
2023-08-05T16:03:38.728Z,94114.50
2023-08-05T16:06:08.353Z,94157.34
2023-08-05T16:08:37.436Z,94148.53
2023-08-05T16:11:07.173Z,94161.75
2023-08-05T16:13:35.804Z,94169.41
2023-08-05T16:16:12.845Z,94167.22
2023-08-05T16:18:42.261Z,94170.38
2023-08-05T16:21:12.723Z,94165.00
2023-08-05T16:23:41.416Z,94166.97
2023-08-05T16:26:11.414Z,94161.81
2023-08-05T16:28:39.828Z,94164.91
2023-08-05T16:31:08.674Z,94164.06
2023-08-05T16:33:39.676Z,94187.44
2023-08-05T16:36:09.294Z,94140.94
2023-08-05T16:38:38.157Z,94180.94
2023-08-05T16:41:07.742Z,94182.25
2023-08-05T16:43:36.218Z,94162.44
2023-08-05T16:46:04.546Z,94166.38
2023-08-05T16:48:32.941Z,94174.00
2023-08-05T16:51:03.979Z,94181.19
2023-08-05T16:53:34.283Z,94150.31
2023-08-05T16:56:03.850Z,94158.59
2023-08-05T16:58:32.424Z,94102.44
2023-08-05T17:01:00.907Z,94145.09
2023-08-05T17:03:29.174Z,94147.41
2023-08-05T17:05:57.508Z,94145.94
2023-08-05T17:08:27.170Z,94146.34
2023-08-05T17:10:55.451Z,94143.97
2023-08-05T17:13:23.780Z,94099.13
2023-08-05T17:15:52.545Z,94133.66
2023-08-05T17:18:20.859Z,94125.38
2023-08-05T17:20:54.307Z,94134.25
2023-08-05T17:23:22.737Z,94141.28
2023-08-05T17:25:52.951Z,94150.13
2023-08-05T17:28:21.328Z,94134.19
2023-08-05T17:30:50.762Z,94129.63
2023-08-05T17:33:19.181Z,94125.34
2023-08-05T17:35:52.652Z,94137.13
2023-08-05T17:38:21.015Z,94145.09
2023-08-05T17:40:50.778Z,94136.28
2023-08-05T17:43:20.715Z,94122.44
2023-08-05T17:45:58.182Z,94148.72
2023-08-05T17:48:26.636Z,94148.75
2023-08-05T17:51:00.995Z,94157.94
2023-08-05T17:53:29.394Z,94123.78
2023-08-05T17:55:57.745Z,94157.59
2023-08-05T17:58:27.805Z,94157.50
2023-08-05T18:00:56.228Z,94157.41
2023-08-05T18:03:24.873Z,94163.25
2023-08-05T18:06:01.555Z,94136.59
2023-08-05T18:08:36.343Z,94168.34
2023-08-05T18:11:05.072Z,94117.91
2023-08-05T18:13:35.097Z,94136.69
2023-08-05T18:16:03.729Z,94176.16
2023-08-05T18:18:32.108Z,94178.53
2023-08-05T18:21:00.365Z,94178.66
2023-08-05T18:23:28.684Z,94184.00
2023-08-05T18:25:57.335Z,94180.06
2023-08-05T18:28:25.779Z,94189.56
2023-08-05T18:30:55.765Z,94196.00
2023-08-05T18:33:23.973Z,94204.69
2023-08-05T18:35:52.337Z,94211.97
2023-08-05T18:38:20.705Z,94200.16
2023-08-05T18:40:48.960Z,94189.59
2023-08-05T18:43:18.370Z,94189.72
2023-08-05T18:45:46.675Z,94181.72
2023-08-05T18:48:16.356Z,94182.16
2023-08-05T18:50:46.454Z,94185.78
2023-08-05T18:53:14.739Z,94183.41
2023-08-05T18:55:43.049Z,94189.59
2023-08-05T18:58:11.622Z,94182.84
2023-08-05T19:00:41.627Z,94193.28
2023-08-05T19:03:09.965Z,94188.69
2023-08-05T19:05:39.880Z,94192.59
2023-08-05T19:08:08.249Z,94185.38
2023-08-05T19:10:45.512Z,94188.91
2023-08-05T19:13:13.716Z,94189.19
2023-08-05T19:15:42.198Z,94198.53
2023-08-05T19:18:13.263Z,94208.78
2023-08-05T19:20:42.966Z,94217.13
2023-08-05T19:23:11.453Z,94214.31
2023-08-05T19:25:39.801Z,94204.56
2023-08-05T19:28:08.124Z,94214.91
2023-08-05T19:30:38.874Z,94218.81
2023-08-05T19:33:07.316Z,94227.13
2023-08-05T19:35:35.633Z,94230.81
2023-08-05T19:38:05.279Z,94231.19
2023-08-05T19:40:33.695Z,94226.56
2023-08-05T19:43:02.968Z,94224.34
2023-08-05T19:45:31.342Z,94228.97
2023-08-05T19:47:59.627Z,94235.31
2023-08-05T19:50:27.957Z,94224.53
2023-08-05T19:52:56.232Z,94226.03
2023-08-05T19:55:30.319Z,94223.63
2023-08-05T19:57:58.635Z,94221.09
2023-08-05T20:00:27.895Z,94230.66
2023-08-05T20:02:57.459Z,94230.47
2023-08-05T20:05:25.971Z,94238.41
2023-08-05T20:07:54.773Z,94246.94
2023-08-05T20:10:23.030Z,94237.50
2023-08-05T20:12:52.796Z,94222.72
2023-08-05T20:15:21.114Z,94206.84
2023-08-05T20:17:49.504Z,94204.22
2023-08-05T20:20:17.933Z,94200.50
2023-08-05T20:22:46.568Z,94211.41
2023-08-05T20:25:14.874Z,94222.97
2023-08-05T20:27:43.205Z,94225.22
2023-08-05T20:30:14.171Z,94222.78
2023-08-05T20:32:43.350Z,94215.94
2023-08-05T20:35:11.937Z,94230.31
2023-08-05T20:37:40.422Z,94227.97
2023-08-05T20:40:09.984Z,94219.19
2023-08-05T20:42:38.237Z,94222.28
2023-08-05T20:45:08.766Z,94212.66
2023-08-05T20:47:38.514Z,94216.69
2023-08-05T20:50:08.072Z,94219.00
2023-08-05T20:52:36.409Z,94210.13
2023-08-05T20:55:04.816Z,94210.53
2023-08-05T20:57:33.296Z,94212.50
2023-08-05T21:00:01.690Z,94205.47
2023-08-05T21:02:30.112Z,94213.28
2023-08-05T21:05:01.170Z,94200.97
2023-08-05T21:07:32.302Z,94157.44
2023-08-05T21:10:00.705Z,94187.16
2023-08-05T21:12:28.917Z,94185.03
2023-08-05T21:14:57.274Z,94196.66
2023-08-05T21:17:25.575Z,94205.06
2023-08-05T21:19:54.025Z,94176.94
2023-08-05T21:22:23.857Z,94163.28
2023-08-05T21:24:52.229Z,94182.22
2023-08-05T21:27:20.601Z,94190.34
2023-08-05T21:29:49.092Z,94186.13
2023-08-05T21:32:17.463Z,94182.06
2023-08-05T21:34:46.377Z,94181.56
2023-08-05T21:37:14.754Z,94173.03
2023-08-05T21:39:47.162Z,94171.78
2023-08-05T21:42:15.612Z,94156.75
2023-08-05T21:44:43.889Z,94146.50
2023-08-05T21:47:12.250Z,94148.28
2023-08-05T21:49:40.845Z,94137.13
2023-08-05T21:52:09.458Z,94138.91
2023-08-05T21:54:37.782Z,94133.41
2023-08-05T21:57:08.830Z,94128.97
2023-08-05T21:59:37.502Z,94138.00
2023-08-05T22:02:06.771Z,94133.31
2023-08-05T22:04:35.404Z,94139.34
2023-08-05T22:07:04.061Z,94133.06
2023-08-05T22:09:32.334Z,94139.88
2023-08-05T22:12:05.129Z,94135.56
2023-08-05T22:14:36.529Z,94126.59
2023-08-05T22:17:04.942Z,94126.03
2023-08-05T22:19:33.320Z,94125.13
2023-08-05T22:22:01.648Z,94116.44
2023-08-05T22:27:03.415Z,94114.13
2023-08-05T22:29:31.697Z,94108.03
2023-08-05T22:32:01.329Z,94097.97
2023-08-05T22:34:29.732Z,94094.13
2023-08-05T22:36:58.060Z,94088.78
2023-08-05T22:39:26.402Z,94079.66
2023-08-05T22:41:55.035Z,94097.28
2023-08-05T22:44:23.525Z,94104.41
2023-08-05T22:46:52.324Z,94110.06
2023-08-05T22:49:22.479Z,94097.53
2023-08-05T22:51:51.084Z,94095.69
2023-08-05T22:54:19.551Z,94092.50
2023-08-05T22:56:47.877Z,94095.13
2023-08-05T22:59:16.290Z,94020.00
2023-08-05T23:01:44.660Z,94073.81
2023-08-05T23:04:13.026Z,94068.78
2023-08-05T23:06:42.770Z,94068.19
2023-08-05T23:09:11.120Z,94074.34
2023-08-05T23:11:39.437Z,94084.69
2023-08-05T23:14:08.698Z,94084.22
2023-08-05T23:16:37.134Z,94083.59
2023-08-05T23:19:07.137Z,94082.59
2023-08-05T23:21:35.454Z,94098.50
2023-08-05T23:24:05.195Z,94069.53
2023-08-05T23:26:33.667Z,94085.00
2023-08-05T23:29:02.058Z,94084.91
2023-08-05T23:31:30.372Z,94084.88
2023-08-05T23:33:59.690Z,94082.88
2023-08-05T23:36:28.434Z,94067.25
2023-08-05T23:38:56.822Z,94073.56
2023-08-05T23:41:26.555Z,94064.50
2023-08-05T23:43:54.917Z,94065.06
2023-08-05T23:46:23.244Z,94051.44
2023-08-05T23:48:51.730Z,94058.25
2023-08-05T23:51:21.004Z,94050.53
2023-08-05T23:53:49.495Z,94049.44
2023-08-05T23:56:17.745Z,94049.44
2023-08-05T23:58:47.515Z,94054.22
